sensor_id;sensor_type;location;lat;lon;timestamp;P1;durP1;ratioP1;P2;durP2;ratioP2
21046;SDS011;10682;50.874;3.656;2022-10-30T00:00:56;15.07;;;5.57;;
21046;SDS011;10682;50.874;3.656;2022-10-30T00:03:23;12.80;;;6.57;;
21046;SDS011;10682;50.874;3.656;2022-10-30T00:05:50;15.75;;;6.13;;
21046;SDS011;10682;50.874;3.656;2022-10-30T00:08:18;20.52;;;6.85;;
21046;SDS011;10682;50.874;3.656;2022-10-30T00:10:47;17.02;;;6.50;;
21046;SDS011;10682;50.874;3.656;2022-10-30T00:13:16;18.52;;;6.65;;
21046;SDS011;10682;50.874;3.656;2022-10-30T00:15:50;15.27;;;6.40;;
21046;SDS011;10682;50.874;3.656;2022-10-30T00:18:19;16.30;;;6.15;;
21046;SDS011;10682;50.874;3.656;2022-10-30T00:20:46;13.40;;;6.55;;
21046;SDS011;10682;50.874;3.656;2022-10-30T00:23:14;16.10;;;6.10;;
21046;SDS011;10682;50.874;3.656;2022-10-30T00:25:41;19.48;;;6.57;;
21046;SDS011;10682;50.874;3.656;2022-10-30T00:28:08;15.00;;;6.15;;
21046;SDS011;10682;50.874;3.656;2022-10-30T00:30:35;18.10;;;7.22;;
21046;SDS011;10682;50.874;3.656;2022-10-30T00:33:03;16.15;;;6.50;;
21046;SDS011;10682;50.874;3.656;2022-10-30T00:35:30;18.23;;;7.32;;
21046;SDS011;10682;50.874;3.656;2022-10-30T00:37:58;16.25;;;6.65;;
21046;SDS011;10682;50.874;3.656;2022-10-30T00:40:27;17.45;;;6.53;;
21046;SDS011;10682;50.874;3.656;2022-10-30T00:42:54;14.15;;;6.15;;
21046;SDS011;10682;50.874;3.656;2022-10-30T00:45:21;15.23;;;5.93;;
21046;SDS011;10682;50.874;3.656;2022-10-30T00:47:52;14.63;;;6.53;;
21046;SDS011;10682;50.874;3.656;2022-10-30T00:50:25;20.15;;;6.97;;
21046;SDS011;10682;50.874;3.656;2022-10-30T00:53:07;18.30;;;7.63;;
21046;SDS011;10682;50.874;3.656;2022-10-30T00:55:40;15.60;;;6.60;;
21046;SDS011;10682;50.874;3.656;2022-10-30T00:58:15;25.08;;;8.07;;
21046;SDS011;10682;50.874;3.656;2022-10-30T01:00:46;12.90;;;7.13;;
21046;SDS011;10682;50.874;3.656;2022-10-30T01:03:18;22.38;;;7.72;;
21046;SDS011;10682;50.874;3.656;2022-10-30T01:05:48;18.80;;;7.88;;
21046;SDS011;10682;50.874;3.656;2022-10-30T01:08:20;20.73;;;7.80;;
21046;SDS011;10682;50.874;3.656;2022-10-30T01:10:47;23.67;;;8.48;;
21046;SDS011;10682;50.874;3.656;2022-10-30T01:13:15;18.02;;;7.30;;
21046;SDS011;10682;50.874;3.656;2022-10-30T01:16:08;16.55;;;7.90;;
21046;SDS011;10682;50.874;3.656;2022-10-30T01:18:59;19.35;;;8.30;;
21046;SDS011;10682;50.874;3.656;2022-10-30T01:24:55;22.03;;;8.03;;
21046;SDS011;10682;50.874;3.656;2022-10-30T01:39:18;15.60;;;6.97;;
21046;SDS011;10682;50.874;3.656;2022-10-30T01:41:48;15.20;;;6.93;;
21046;SDS011;10682;50.874;3.656;2022-10-30T01:44:17;18.03;;;7.10;;
21046;SDS011;10682;50.874;3.656;2022-10-30T01:52:51;15.10;;;7.27;;
21046;SDS011;10682;50.874;3.656;2022-10-30T01:55:34;18.77;;;6.93;;
21046;SDS011;10682;50.874;3.656;2022-10-30T02:00:55;19.03;;;7.63;;
21046;SDS011;10682;50.874;3.656;2022-10-30T02:03:24;19.40;;;7.03;;
21046;SDS011;10682;50.874;3.656;2022-10-30T02:05:52;17.47;;;6.97;;
21046;SDS011;10682;50.874;3.656;2022-10-30T02:08:20;20.33;;;7.20;;
21046;SDS011;10682;50.874;3.656;2022-10-30T02:10:48;15.07;;;6.23;;
21046;SDS011;10682;50.874;3.656;2022-10-30T02:13:17;15.40;;;6.43;;
21046;SDS011;10682;50.874;3.656;2022-10-30T02:15:45;13.80;;;6.30;;
21046;SDS011;10682;50.874;3.656;2022-10-30T02:18:13;15.63;;;7.40;;
21046;SDS011;10682;50.874;3.656;2022-10-30T02:20:41;14.63;;;6.90;;
21046;SDS011;10682;50.874;3.656;2022-10-30T02:23:08;18.13;;;8.17;;
21046;SDS011;10682;50.874;3.656;2022-10-30T02:25:41;17.33;;;8.10;;
21046;SDS011;10682;50.874;3.656;2022-10-30T02:28:08;19.00;;;8.00;;
21046;SDS011;10682;50.874;3.656;2022-10-30T02:30:35;17.53;;;7.60;;
21046;SDS011;10682;50.874;3.656;2022-10-30T02:33:02;16.77;;;8.13;;
21046;SDS011;10682;50.874;3.656;2022-10-30T02:35:29;24.13;;;8.13;;
21046;SDS011;10682;50.874;3.656;2022-10-30T02:37:56;19.30;;;8.30;;
21046;SDS011;10682;50.874;3.656;2022-10-30T02:40:24;22.30;;;8.60;;
21046;SDS011;10682;50.874;3.656;2022-10-30T02:42:51;15.37;;;8.10;;
21046;SDS011;10682;50.874;3.656;2022-10-30T02:45:19;21.67;;;8.70;;
21046;SDS011;10682;50.874;3.656;2022-10-30T02:47:46;22.47;;;8.97;;
21046;SDS011;10682;50.874;3.656;2022-10-30T02:50:14;22.70;;;9.27;;
21046;SDS011;10682;50.874;3.656;2022-10-30T02:52:41;17.93;;;9.10;;
21046;SDS011;10682;50.874;3.656;2022-10-30T02:55:08;24.53;;;9.07;;
21046;SDS011;10682;50.874;3.656;2022-10-30T02:57:35;21.17;;;8.73;;
21046;SDS011;10682;50.874;3.656;2022-10-30T03:00:02;18.80;;;8.60;;
21046;SDS011;10682;50.874;3.656;2022-10-30T03:02:30;24.30;;;8.80;;
21046;SDS011;10682;50.874;3.656;2022-10-30T03:04:57;22.57;;;8.77;;
21046;SDS011;10682;50.874;3.656;2022-10-30T03:07:24;20.73;;;8.40;;
21046;SDS011;10682;50.874;3.656;2022-10-30T03:09:51;16.40;;;7.73;;
21046;SDS011;10682;50.874;3.656;2022-10-30T03:12:20;21.07;;;7.80;;
21046;SDS011;10682;50.874;3.656;2022-10-30T03:14:47;14.70;;;7.37;;
21046;SDS011;10682;50.874;3.656;2022-10-30T03:17:14;18.90;;;7.37;;
21046;SDS011;10682;50.874;3.656;2022-10-30T03:19:41;26.10;;;7.37;;
21046;SDS011;10682;50.874;3.656;2022-10-30T03:22:08;18.53;;;6.60;;
21046;SDS011;10682;50.874;3.656;2022-10-30T03:24:35;19.87;;;7.40;;
21046;SDS011;10682;50.874;3.656;2022-10-30T03:27:03;15.83;;;7.30;;
21046;SDS011;10682;50.874;3.656;2022-10-30T03:29:30;20.37;;;7.50;;
21046;SDS011;10682;50.874;3.656;2022-10-30T03:31:57;18.83;;;7.30;;
21046;SDS011;10682;50.874;3.656;2022-10-30T03:34:24;15.20;;;7.03;;
21046;SDS011;10682;50.874;3.656;2022-10-30T03:36:52;14.23;;;7.70;;
21046;SDS011;10682;50.874;3.656;2022-10-30T03:39:19;14.43;;;7.47;;
21046;SDS011;10682;50.874;3.656;2022-10-30T03:41:46;21.87;;;7.83;;
21046;SDS011;10682;50.874;3.656;2022-10-30T03:44:13;17.20;;;7.77;;
21046;SDS011;10682;50.874;3.656;2022-10-30T03:46:40;16.83;;;8.13;;
21046;SDS011;10682;50.874;3.656;2022-10-30T03:49:07;22.80;;;8.53;;
21046;SDS011;10682;50.874;3.656;2022-10-30T03:51:34;19.77;;;7.40;;
21046;SDS011;10682;50.874;3.656;2022-10-30T03:54:01;21.47;;;8.83;;
21046;SDS011;10682;50.874;3.656;2022-10-30T03:56:28;18.67;;;8.50;;
21046;SDS011;10682;50.874;3.656;2022-10-30T03:58:55;22.23;;;7.80;;
21046;SDS011;10682;50.874;3.656;2022-10-30T04:01:21;23.73;;;8.00;;
21046;SDS011;10682;50.874;3.656;2022-10-30T04:03:49;21.30;;;7.80;;
21046;SDS011;10682;50.874;3.656;2022-10-30T04:06:16;17.83;;;8.00;;
21046;SDS011;10682;50.874;3.656;2022-10-30T04:08:43;15.87;;;7.27;;
21046;SDS011;10682;50.874;3.656;2022-10-30T04:11:09;17.30;;;7.17;;
21046;SDS011;10682;50.874;3.656;2022-10-30T04:13:36;14.90;;;6.80;;
21046;SDS011;10682;50.874;3.656;2022-10-30T04:16:04;22.07;;;7.40;;
21046;SDS011;10682;50.874;3.656;2022-10-30T04:18:31;19.57;;;8.00;;
21046;SDS011;10682;50.874;3.656;2022-10-30T04:20:59;22.83;;;7.23;;
21046;SDS011;10682;50.874;3.656;2022-10-30T04:23:26;17.57;;;7.30;;
21046;SDS011;10682;50.874;3.656;2022-10-30T04:25:53;20.30;;;8.00;;
21046;SDS011;10682;50.874;3.656;2022-10-30T04:28:20;17.83;;;7.00;;
21046;SDS011;10682;50.874;3.656;2022-10-30T04:30:47;18.50;;;7.27;;
21046;SDS011;10682;50.874;3.656;2022-10-30T04:33:14;18.67;;;7.53;;
21046;SDS011;10682;50.874;3.656;2022-10-30T04:35:41;17.33;;;6.90;;
21046;SDS011;10682;50.874;3.656;2022-10-30T04:38:09;16.70;;;7.90;;
21046;SDS011;10682;50.874;3.656;2022-10-30T04:40:41;15.30;;;7.80;;
21046;SDS011;10682;50.874;3.656;2022-10-30T04:43:09;19.57;;;7.27;;
21046;SDS011;10682;50.874;3.656;2022-10-30T04:45:37;16.40;;;6.47;;
21046;SDS011;10682;50.874;3.656;2022-10-30T04:50:39;16.50;;;6.43;;
21046;SDS011;10682;50.874;3.656;2022-10-30T04:53:14;12.67;;;5.77;;
21046;SDS011;10682;50.874;3.656;2022-10-30T04:55:46;16.90;;;6.80;;
21046;SDS011;10682;50.874;3.656;2022-10-30T04:58:13;14.27;;;6.87;;
21046;SDS011;10682;50.874;3.656;2022-10-30T05:00:40;17.33;;;7.20;;
21046;SDS011;10682;50.874;3.656;2022-10-30T05:03:07;20.37;;;8.90;;
21046;SDS011;10682;50.874;3.656;2022-10-30T05:05:45;17.93;;;8.80;;
21046;SDS011;10682;50.874;3.656;2022-10-30T05:08:14;14.63;;;7.90;;
21046;SDS011;10682;50.874;3.656;2022-10-30T05:10:41;18.17;;;8.07;;
21046;SDS011;10682;50.874;3.656;2022-10-30T05:13:11;21.73;;;8.07;;
21046;SDS011;10682;50.874;3.656;2022-10-30T05:15:38;18.47;;;8.43;;
21046;SDS011;10682;50.874;3.656;2022-10-30T05:18:05;17.53;;;8.20;;
21046;SDS011;10682;50.874;3.656;2022-10-30T05:20:32;21.40;;;10.30;;
21046;SDS011;10682;50.874;3.656;2022-10-30T05:22:59;20.00;;;9.10;;
21046;SDS011;10682;50.874;3.656;2022-10-30T05:25:26;22.37;;;9.00;;
21046;SDS011;10682;50.874;3.656;2022-10-30T05:28:01;23.03;;;8.90;;
21046;SDS011;10682;50.874;3.656;2022-10-30T05:30:30;17.53;;;7.40;;
21046;SDS011;10682;50.874;3.656;2022-10-30T05:33:00;22.93;;;7.97;;
21046;SDS011;10682;50.874;3.656;2022-10-30T05:35:30;18.53;;;7.70;;
21046;SDS011;10682;50.874;3.656;2022-10-30T05:37:59;20.53;;;8.70;;
21046;SDS011;10682;50.874;3.656;2022-10-30T05:40:28;21.37;;;8.40;;
21046;SDS011;10682;50.874;3.656;2022-10-30T05:42:55;19.77;;;8.63;;
21046;SDS011;10682;50.874;3.656;2022-10-30T05:45:22;21.20;;;8.90;;
21046;SDS011;10682;50.874;3.656;2022-10-30T05:48:08;23.80;;;7.83;;
21046;SDS011;10682;50.874;3.656;2022-10-30T05:50:38;22.17;;;7.17;;
21046;SDS011;10682;50.874;3.656;2022-10-30T05:53:05;14.20;;;6.77;;
21046;SDS011;10682;50.874;3.656;2022-10-30T05:55:35;19.67;;;8.10;;
21046;SDS011;10682;50.874;3.656;2022-10-30T05:58:02;21.07;;;8.93;;
21046;SDS011;10682;50.874;3.656;2022-10-30T06:00:32;20.67;;;8.93;;
21046;SDS011;10682;50.874;3.656;2022-10-30T06:03:02;20.03;;;9.00;;
21046;SDS011;10682;50.874;3.656;2022-10-30T06:05:33;25.37;;;9.40;;
21046;SDS011;10682;50.874;3.656;2022-10-30T06:08:02;18.73;;;8.83;;
21046;SDS011;10682;50.874;3.656;2022-10-30T06:10:31;20.40;;;8.17;;
21046;SDS011;10682;50.874;3.656;2022-10-30T06:13:00;17.30;;;8.80;;
21046;SDS011;10682;50.874;3.656;2022-10-30T06:15:30;23.63;;;9.53;;
21046;SDS011;10682;50.874;3.656;2022-10-30T06:17:58;18.80;;;8.03;;
21046;SDS011;10682;50.874;3.656;2022-10-30T06:20:27;21.27;;;9.13;;
21046;SDS011;10682;50.874;3.656;2022-10-30T06:22:59;20.50;;;8.53;;
21046;SDS011;10682;50.874;3.656;2022-10-30T06:25:31;18.47;;;8.57;;
21046;SDS011;10682;50.874;3.656;2022-10-30T06:28:10;17.17;;;9.00;;
21046;SDS011;10682;50.874;3.656;2022-10-30T06:30:38;19.30;;;8.37;;
21046;SDS011;10682;50.874;3.656;2022-10-30T06:33:05;18.93;;;8.37;;
21046;SDS011;10682;50.874;3.656;2022-10-30T06:35:33;20.23;;;8.60;;
21046;SDS011;10682;50.874;3.656;2022-10-30T06:38:00;22.40;;;9.73;;
21046;SDS011;10682;50.874;3.656;2022-10-30T06:40:27;24.87;;;9.20;;
21046;SDS011;10682;50.874;3.656;2022-10-30T06:42:55;17.67;;;8.43;;
21046;SDS011;10682;50.874;3.656;2022-10-30T06:45:23;16.97;;;7.50;;
21046;SDS011;10682;50.874;3.656;2022-10-30T06:47:50;21.13;;;7.83;;
21046;SDS011;10682;50.874;3.656;2022-10-30T06:50:18;13.77;;;7.27;;
21046;SDS011;10682;50.874;3.656;2022-10-30T06:52:47;16.60;;;8.00;;
21046;SDS011;10682;50.874;3.656;2022-10-30T06:55:14;18.33;;;8.27;;
21046;SDS011;10682;50.874;3.656;2022-10-30T06:57:42;21.13;;;8.97;;
21046;SDS011;10682;50.874;3.656;2022-10-30T07:00:09;18.70;;;8.57;;
21046;SDS011;10682;50.874;3.656;2022-10-30T07:02:38;18.47;;;7.73;;
21046;SDS011;10682;50.874;3.656;2022-10-30T07:05:05;19.50;;;8.00;;
21046;SDS011;10682;50.874;3.656;2022-10-30T07:07:32;18.07;;;8.50;;
21046;SDS011;10682;50.874;3.656;2022-10-30T07:09:59;17.83;;;8.67;;
21046;SDS011;10682;50.874;3.656;2022-10-30T07:12:26;15.57;;;7.90;;
21046;SDS011;10682;50.874;3.656;2022-10-30T07:14:53;19.23;;;8.40;;
21046;SDS011;10682;50.874;3.656;2022-10-30T07:17:20;18.93;;;8.70;;
21046;SDS011;10682;50.874;3.656;2022-10-30T07:19:46;19.93;;;8.03;;
21046;SDS011;10682;50.874;3.656;2022-10-30T07:22:13;21.17;;;8.47;;
21046;SDS011;10682;50.874;3.656;2022-10-30T07:24:40;17.27;;;8.17;;
21046;SDS011;10682;50.874;3.656;2022-10-30T07:27:07;20.13;;;8.23;;
21046;SDS011;10682;50.874;3.656;2022-10-30T07:29:34;22.87;;;10.57;;
21046;SDS011;10682;50.874;3.656;2022-10-30T07:32:01;24.60;;;11.73;;
21046;SDS011;10682;50.874;3.656;2022-10-30T07:34:29;23.60;;;12.30;;
21046;SDS011;10682;50.874;3.656;2022-10-30T07:36:56;21.53;;;10.13;;
21046;SDS011;10682;50.874;3.656;2022-10-30T07:39:23;20.73;;;9.47;;
21046;SDS011;10682;50.874;3.656;2022-10-30T07:41:50;23.60;;;10.43;;
21046;SDS011;10682;50.874;3.656;2022-10-30T07:44:17;21.57;;;9.13;;
21046;SDS011;10682;50.874;3.656;2022-10-30T07:46:44;18.23;;;8.43;;
21046;SDS011;10682;50.874;3.656;2022-10-30T07:49:11;19.83;;;8.87;;
21046;SDS011;10682;50.874;3.656;2022-10-30T07:51:38;22.10;;;9.10;;
21046;SDS011;10682;50.874;3.656;2022-10-30T07:54:05;20.03;;;8.93;;
21046;SDS011;10682;50.874;3.656;2022-10-30T07:56:32;19.00;;;8.93;;
21046;SDS011;10682;50.874;3.656;2022-10-30T07:58:59;16.47;;;8.60;;
21046;SDS011;10682;50.874;3.656;2022-10-30T08:01:26;20.63;;;9.30;;
21046;SDS011;10682;50.874;3.656;2022-10-30T08:03:53;21.43;;;9.37;;
21046;SDS011;10682;50.874;3.656;2022-10-30T08:06:20;21.23;;;8.88;;
21046;SDS011;10682;50.874;3.656;2022-10-30T08:08:52;24.40;;;9.67;;
21046;SDS011;10682;50.874;3.656;2022-10-30T08:11:19;22.80;;;9.07;;
21046;SDS011;10682;50.874;3.656;2022-10-30T08:13:46;23.23;;;9.23;;
21046;SDS011;10682;50.874;3.656;2022-10-30T08:16:12;20.67;;;8.70;;
21046;SDS011;10682;50.874;3.656;2022-10-30T08:18:40;23.30;;;8.95;;
21046;SDS011;10682;50.874;3.656;2022-10-30T08:21:08;20.33;;;7.78;;
21046;SDS011;10682;50.874;3.656;2022-10-30T08:23:35;16.58;;;7.53;;
21046;SDS011;10682;50.874;3.656;2022-10-30T08:26:03;20.45;;;8.38;;
21046;SDS011;10682;50.874;3.656;2022-10-30T08:28:30;22.77;;;7.60;;
21046;SDS011;10682;50.874;3.656;2022-10-30T08:30:59;21.30;;;7.75;;
21046;SDS011;10682;50.874;3.656;2022-10-30T08:33:26;18.75;;;7.65;;
21046;SDS011;10682;50.874;3.656;2022-10-30T08:35:55;26.27;;;8.18;;
21046;SDS011;10682;50.874;3.656;2022-10-30T08:38:24;19.92;;;7.60;;
21046;SDS011;10682;50.874;3.656;2022-10-30T08:40:53;22.25;;;7.20;;
21046;SDS011;10682;50.874;3.656;2022-10-30T08:43:20;17.75;;;7.57;;
21046;SDS011;10682;50.874;3.656;2022-10-30T08:45:48;22.00;;;6.95;;
21046;SDS011;10682;50.874;3.656;2022-10-30T08:48:15;18.73;;;7.50;;
21046;SDS011;10682;50.874;3.656;2022-10-30T08:50:42;19.05;;;7.82;;
21046;SDS011;10682;50.874;3.656;2022-10-30T08:53:11;18.17;;;8.18;;
21046;SDS011;10682;50.874;3.656;2022-10-30T08:55:40;21.83;;;8.68;;
21046;SDS011;10682;50.874;3.656;2022-10-30T08:58:07;17.77;;;8.45;;
21046;SDS011;10682;50.874;3.656;2022-10-30T09:00:35;22.88;;;6.65;;
21046;SDS011;10682;50.874;3.656;2022-10-30T09:03:02;21.65;;;8.07;;
21046;SDS011;10682;50.874;3.656;2022-10-30T09:05:29;19.75;;;8.27;;
21046;SDS011;10682;50.874;3.656;2022-10-30T09:07:56;26.77;;;8.52;;
21046;SDS011;10682;50.874;3.656;2022-10-30T09:10:27;25.15;;;8.90;;
21046;SDS011;10682;50.874;3.656;2022-10-30T09:12:55;21.88;;;8.85;;
21046;SDS011;10682;50.874;3.656;2022-10-30T09:15:24;24.08;;;8.57;;
21046;SDS011;10682;50.874;3.656;2022-10-30T09:17:59;19.73;;;7.68;;
21046;SDS011;10682;50.874;3.656;2022-10-30T09:20:28;18.50;;;7.75;;
21046;SDS011;10682;50.874;3.656;2022-10-30T09:22:56;23.38;;;7.03;;
21046;SDS011;10682;50.874;3.656;2022-10-30T09:25:24;23.02;;;7.10;;
21046;SDS011;10682;50.874;3.656;2022-10-30T09:27:51;24.40;;;7.13;;
21046;SDS011;10682;50.874;3.656;2022-10-30T09:30:18;24.83;;;7.30;;
21046;SDS011;10682;50.874;3.656;2022-10-30T09:32:52;20.50;;;7.32;;
21046;SDS011;10682;50.874;3.656;2022-10-30T09:35:24;22.58;;;7.72;;
21046;SDS011;10682;50.874;3.656;2022-10-30T09:37:51;21.75;;;6.78;;
21046;SDS011;10682;50.874;3.656;2022-10-30T09:41:04;22.55;;;7.60;;
21046;SDS011;10682;50.874;3.656;2022-10-30T09:49:27;23.27;;;6.97;;
21046;SDS011;10682;50.874;3.656;2022-10-30T09:58:03;20.38;;;7.55;;
21046;SDS011;10682;50.874;3.656;2022-10-30T10:03:56;17.80;;;6.47;;
21046;SDS011;10682;50.874;3.656;2022-10-30T10:06:52;20.17;;;7.13;;
21046;SDS011;10682;50.874;3.656;2022-10-30T10:09:32;22.40;;;7.10;;
21046;SDS011;10682;50.874;3.656;2022-10-30T10:12:16;16.98;;;6.28;;
21046;SDS011;10682;50.874;3.656;2022-10-30T10:17:59;26.02;;;7.15;;
21046;SDS011;10682;50.874;3.656;2022-10-30T10:20:36;17.67;;;7.15;;
21046;SDS011;10682;50.874;3.656;2022-10-30T10:23:18;18.80;;;6.95;;
21046;SDS011;10682;50.874;3.656;2022-10-30T10:25:56;20.75;;;6.75;;
21046;SDS011;10682;50.874;3.656;2022-10-30T10:31:41;22.20;;;6.68;;
21046;SDS011;10682;50.874;3.656;2022-10-30T10:34:46;19.35;;;7.05;;
21046;SDS011;10682;50.874;3.656;2022-10-30T10:40:14;22.30;;;6.97;;
21046;SDS011;10682;50.874;3.656;2022-10-30T10:43:33;24.30;;;7.15;;
21046;SDS011;10682;50.874;3.656;2022-10-30T10:49:38;22.92;;;7.45;;
21046;SDS011;10682;50.874;3.656;2022-10-30T10:52:35;25.45;;;7.43;;
21046;SDS011;10682;50.874;3.656;2022-10-30T10:55:23;22.60;;;7.53;;
21046;SDS011;10682;50.874;3.656;2022-10-30T10:57:56;18.25;;;6.50;;
21046;SDS011;10682;50.874;3.656;2022-10-30T11:00:50;23.33;;;7.32;;
21046;SDS011;10682;50.874;3.656;2022-10-30T11:03:22;21.45;;;7.38;;
21046;SDS011;10682;50.874;3.656;2022-10-30T11:08:48;26.77;;;7.68;;
21046;SDS011;10682;50.874;3.656;2022-10-30T11:11:17;15.82;;;6.90;;
21046;SDS011;10682;50.874;3.656;2022-10-30T11:13:44;21.42;;;6.65;;
21046;SDS011;10682;50.874;3.656;2022-10-30T11:19:07;24.20;;;7.53;;
21046;SDS011;10682;50.874;3.656;2022-10-30T11:21:37;21.38;;;8.10;;
21046;SDS011;10682;50.874;3.656;2022-10-30T11:24:24;22.15;;;7.38;;
21046;SDS011;10682;50.874;3.656;2022-10-30T11:27:44;17.02;;;7.55;;
21046;SDS011;10682;50.874;3.656;2022-10-30T11:30:00;20.13;;;7.82;;
21046;SDS011;10682;50.874;3.656;2022-10-30T11:32:31;24.38;;;7.85;;
21046;SDS011;10682;50.874;3.656;2022-10-30T11:37:34;26.52;;;8.07;;
21046;SDS011;10682;50.874;3.656;2022-10-30T11:42:44;23.58;;;7.97;;
21046;SDS011;10682;50.874;3.656;2022-10-30T11:45:14;32.28;;;7.90;;
21046;SDS011;10682;50.874;3.656;2022-10-30T11:47:57;23.50;;;8.00;;
21046;SDS011;10682;50.874;3.656;2022-10-30T11:50:30;25.77;;;7.70;;
21046;SDS011;10682;50.874;3.656;2022-10-30T11:53:02;19.80;;;7.85;;
21046;SDS011;10682;50.874;3.656;2022-10-30T11:55:45;25.17;;;7.97;;
21046;SDS011;10682;50.874;3.656;2022-10-30T11:58:32;21.92;;;7.75;;
21046;SDS011;10682;50.874;3.656;2022-10-30T12:01:11;26.27;;;7.78;;
21046;SDS011;10682;50.874;3.656;2022-10-30T12:03:56;19.73;;;7.20;;
21046;SDS011;10682;50.874;3.656;2022-10-30T12:06:41;22.13;;;7.65;;
21046;SDS011;10682;50.874;3.656;2022-10-30T12:11:46;28.02;;;7.68;;
21046;SDS011;10682;50.874;3.656;2022-10-30T12:14:15;18.90;;;7.45;;
21046;SDS011;10682;50.874;3.656;2022-10-30T12:16:47;24.48;;;7.75;;
21046;SDS011;10682;50.874;3.656;2022-10-30T12:19:20;18.42;;;6.90;;
21046;SDS011;10682;50.874;3.656;2022-10-30T12:21:50;22.70;;;7.25;;
21046;SDS011;10682;50.874;3.656;2022-10-30T12:24:26;17.08;;;6.72;;
21046;SDS011;10682;50.874;3.656;2022-10-30T12:27:04;20.13;;;6.63;;
21046;SDS011;10682;50.874;3.656;2022-10-30T12:29:39;28.00;;;7.05;;
21046;SDS011;10682;50.874;3.656;2022-10-30T12:32:36;19.88;;;7.80;;
21046;SDS011;10682;50.874;3.656;2022-10-30T12:35:16;26.17;;;8.07;;
21046;SDS011;10682;50.874;3.656;2022-10-30T12:37:57;18.55;;;6.95;;
21046;SDS011;10682;50.874;3.656;2022-10-30T12:40:34;20.77;;;7.53;;
21046;SDS011;10682;50.874;3.656;2022-10-30T12:43:22;22.95;;;6.80;;
21046;SDS011;10682;50.874;3.656;2022-10-30T12:48:52;22.10;;;7.53;;
21046;SDS011;10682;50.874;3.656;2022-10-30T12:54:37;23.90;;;7.15;;
21046;SDS011;10682;50.874;3.656;2022-10-30T12:57:14;21.00;;;7.20;;
21046;SDS011;10682;50.874;3.656;2022-10-30T12:59:55;18.98;;;6.53;;
21046;SDS011;10682;50.874;3.656;2022-10-30T13:13:58;27.15;;;7.53;;
21046;SDS011;10682;50.874;3.656;2022-10-30T13:16:28;23.42;;;8.18;;
21046;SDS011;10682;50.874;3.656;2022-10-30T13:19:00;20.45;;;8.30;;
21046;SDS011;10682;50.874;3.656;2022-10-30T13:24:10;19.58;;;8.18;;
21046;SDS011;10682;50.874;3.656;2022-10-30T13:27:00;20.10;;;7.90;;
21046;SDS011;10682;50.874;3.656;2022-10-30T13:29:49;17.15;;;8.20;;
21046;SDS011;10682;50.874;3.656;2022-10-30T13:35:32;17.20;;;8.30;;
21046;SDS011;10682;50.874;3.656;2022-10-30T13:38:23;25.90;;;9.82;;
21046;SDS011;10682;50.874;3.656;2022-10-30T13:44:32;14.63;;;7.13;;
21046;SDS011;10682;50.874;3.656;2022-10-30T13:53:00;13.43;;;5.13;;
21046;SDS011;10682;50.874;3.656;2022-10-30T13:55:32;11.20;;;5.00;;
21046;SDS011;10682;50.874;3.656;2022-10-30T13:58:10;11.98;;;4.85;;
21046;SDS011;10682;50.874;3.656;2022-10-30T14:06:30;15.35;;;4.72;;
21046;SDS011;10682;50.874;3.656;2022-10-30T14:09:37;13.55;;;5.03;;
21046;SDS011;10682;50.874;3.656;2022-10-30T14:15:44;10.35;;;3.92;;
21046;SDS011;10682;50.874;3.656;2022-10-30T14:20:43;10.32;;;3.15;;
21046;SDS011;10682;50.874;3.656;2022-10-30T14:28:39;12.48;;;2.53;;
21046;SDS011;10682;50.874;3.656;2022-10-30T14:31:16;6.22;;;2.40;;
21046;SDS011;10682;50.874;3.656;2022-10-30T14:33:49;7.70;;;2.33;;
21046;SDS011;10682;50.874;3.656;2022-10-30T14:36:22;8.40;;;2.03;;
21046;SDS011;10682;50.874;3.656;2022-10-30T14:50:10;7.35;;;1.75;;
21046;SDS011;10682;50.874;3.656;2022-10-30T14:53:23;8.10;;;1.70;;
21046;SDS011;10682;50.874;3.656;2022-10-30T15:04:48;10.35;;;2.28;;
21046;SDS011;10682;50.874;3.656;2022-10-30T15:07:45;10.80;;;2.40;;
21046;SDS011;10682;50.874;3.656;2022-10-30T15:10:30;6.38;;;2.10;;
21046;SDS011;10682;50.874;3.656;2022-10-30T15:15:55;13.77;;;2.70;;
21046;SDS011;10682;50.874;3.656;2022-10-30T15:18:28;8.70;;;2.75;;
21046;SDS011;10682;50.874;3.656;2022-10-30T15:21:03;6.93;;;2.40;;
21046;SDS011;10682;50.874;3.656;2022-10-30T15:23:33;13.18;;;2.65;;
21046;SDS011;10682;50.874;3.656;2022-10-30T15:26:03;12.18;;;2.53;;
21046;SDS011;10682;50.874;3.656;2022-10-30T15:28:35;6.10;;;2.25;;
21046;SDS011;10682;50.874;3.656;2022-10-30T15:31:19;12.43;;;3.03;;
21046;SDS011;10682;50.874;3.656;2022-10-30T15:33:49;8.90;;;2.50;;
21046;SDS011;10682;50.874;3.656;2022-10-30T15:36:20;11.02;;;2.60;;
21046;SDS011;10682;50.874;3.656;2022-10-30T15:39:06;9.27;;;2.80;;
21046;SDS011;10682;50.874;3.656;2022-10-30T15:41:52;10.07;;;2.50;;
21046;SDS011;10682;50.874;3.656;2022-10-30T15:44:24;6.15;;;2.78;;
21046;SDS011;10682;50.874;3.656;2022-10-30T15:46:54;9.85;;;2.40;;
21046;SDS011;10682;50.874;3.656;2022-10-30T15:49:30;7.70;;;2.17;;
21046;SDS011;10682;50.874;3.656;2022-10-30T15:52:20;9.35;;;3.05;;
21046;SDS011;10682;50.874;3.656;2022-10-30T15:54:56;11.25;;;3.78;;
21046;SDS011;10682;50.874;3.656;2022-10-30T15:57:35;8.63;;;3.65;;
21046;SDS011;10682;50.874;3.656;2022-10-30T16:00:34;11.07;;;4.32;;
21046;SDS011;10682;50.874;3.656;2022-10-30T16:05:42;10.63;;;3.92;;
21046;SDS011;10682;50.874;3.656;2022-10-30T16:08:20;11.95;;;4.22;;
21046;SDS011;10682;50.874;3.656;2022-10-30T16:10:52;9.32;;;4.10;;
21046;SDS011;10682;50.874;3.656;2022-10-30T16:13:29;9.48;;;3.70;;
21046;SDS011;10682;50.874;3.656;2022-10-30T16:15:57;11.50;;;3.83;;
21046;SDS011;10682;50.874;3.656;2022-10-30T16:18:26;12.55;;;4.03;;
21046;SDS011;10682;50.874;3.656;2022-10-30T16:21:02;14.93;;;3.75;;
21046;SDS011;10682;50.874;3.656;2022-10-30T16:23:37;8.40;;;3.90;;
21046;SDS011;10682;50.874;3.656;2022-10-30T16:26:05;12.20;;;3.20;;
21046;SDS011;10682;50.874;3.656;2022-10-30T16:28:36;9.20;;;3.20;;
21046;SDS011;10682;50.874;3.656;2022-10-30T16:31:07;10.05;;;3.38;;
21046;SDS011;10682;50.874;3.656;2022-10-30T16:33:40;11.38;;;3.60;;
21046;SDS011;10682;50.874;3.656;2022-10-30T16:36:10;13.68;;;3.28;;
21046;SDS011;10682;50.874;3.656;2022-10-30T16:38:45;9.35;;;3.97;;
21046;SDS011;10682;50.874;3.656;2022-10-30T16:41:14;9.95;;;3.72;;
21046;SDS011;10682;50.874;3.656;2022-10-30T16:43:42;12.32;;;3.70;;
21046;SDS011;10682;50.874;3.656;2022-10-30T16:46:40;9.48;;;3.25;;
21046;SDS011;10682;50.874;3.656;2022-10-30T16:49:30;12.82;;;4.15;;
21046;SDS011;10682;50.874;3.656;2022-10-30T16:52:06;13.57;;;4.40;;
21046;SDS011;10682;50.874;3.656;2022-10-30T16:54:39;13.60;;;4.40;;
21046;SDS011;10682;50.874;3.656;2022-10-30T16:57:32;11.32;;;4.25;;
21046;SDS011;10682;50.874;3.656;2022-10-30T17:00:05;14.98;;;4.30;;
21046;SDS011;10682;50.874;3.656;2022-10-30T17:02:52;11.73;;;4.00;;
21046;SDS011;10682;50.874;3.656;2022-10-30T17:05:23;12.10;;;3.65;;
21046;SDS011;10682;50.874;3.656;2022-10-30T17:08:05;12.55;;;3.92;;
21046;SDS011;10682;50.874;3.656;2022-10-30T17:11:17;9.82;;;3.85;;
21046;SDS011;10682;50.874;3.656;2022-10-30T17:13:58;11.48;;;3.83;;
21046;SDS011;10682;50.874;3.656;2022-10-30T17:16:28;13.63;;;4.18;;
21046;SDS011;10682;50.874;3.656;2022-10-30T17:21:57;12.80;;;4.30;;
21046;SDS011;10682;50.874;3.656;2022-10-30T17:24:29;10.60;;;3.90;;
21046;SDS011;10682;50.874;3.656;2022-10-30T17:27:03;15.85;;;4.40;;
21046;SDS011;10682;50.874;3.656;2022-10-30T17:32:04;9.50;;;4.00;;
21046;SDS011;10682;50.874;3.656;2022-10-30T17:34:40;14.02;;;5.28;;